Date,TemperatureHighF,TemperatureAvgF,TemperatureLowF,DewpointHighF,DewpointAvgF,DewpointLowF,HumidityHigh,HumidityAvg,HumidityLow,PressureMaxIn,PressureMinIn,WindSpeedMaxMPH,WindSpeedAvgMPH,GustSpeedMaxMPH,PrecipitationSumIn
2013-3-1,64.7,38.9,26.0,24.0,17.5,12.5,66,46,15,30.41,30.26,24,1,24,0.00
2013-3-2,68.4,50.8,31.1,29.0,25.5,20.2,69,40,21,30.51,30.27,11,1,11,0.00
2013-3-3,79.3,59.4,37.3,28.2,23.4,16.8,62,31,10,30.27,29.80,22,6,29,0.00
2013-3-4,83.8,68.0,54.2,30.7,19.9,4.4,36,18,5,29.82,29.67,27,5,27,0.00
2013-3-5,66.2,50.4,40.8,40.7,20.9,10.8,59,34,12,30.44,29.81,22,5,22,0.00
2013-3-6,67.0,48.1,28.5,17.3,13.7,9.0,50,28,13,30.49,30.21,18,2,18,0.00
2013-3-7,73.1,58.0,45.0,48.5,33.0,14.0,70,40,25,30.21,30.03,19,4,19,0.00
2013-3-8,72.3,65.2,56.7,58.3,56.2,47.2,85,73,59,30.05,29.85,23,5,23,0.00
2013-3-9,80.8,68.9,61.5,59.1,47.8,23.3,81,52,24,29.85,29.63,25,6,25,0.00
2013-3-10,61.4,52.8,42.8,30.1,21.1,12.6,49,30,17,30.19,29.80,27,7,27,0.00
2013-3-11,73.0,51.1,29.9,23.6,16.7,10.8,49,28,13,30.26,30.02,13,1,18,0.00
2013-3-12,73.1,59.0,47.4,28.9,22.9,16.5,34,26,13,30.34,30.03,23,5,23,0.00
2013-3-13,78.9,59.0,40.5,36.8,28.0,23.2,51,33,15,30.46,30.24,19,1,19,0.00
2013-3-14,81.5,65.8,52.7,46.4,38.9,30.7,65,40,20,30.31,30.14,22,4,22,0.00
2013-3-15,86.3,69.3,55.5,50.9,42.8,36.6,74,42,18,30.17,29.88,19,5,19,0.00
2013-3-16,92.1,74.3,58.3,48.8,41.1,29.6,68,35,11,29.88,29.60,23,6,23,0.00
2013-3-17,82.2,67.8,49.9,48.8,41.4,35.0,70,41,19,29.82,29.62,18,2,18,0.00
2013-3-18,77.1,65.9,53.2,40.8,34.4,20.9,52,32,23,29.96,29.71,14,1,18,0.00
2013-3-19,86.3,57.6,43.3,47.7,38.4,29.1,81,56,14,30.10,29.80,22,3,25,0.00
2013-3-20,72.9,60.4,48.6,46.1,33.3,29.1,61,38,21,30.31,29.99,16,5,16,0.00
2013-3-21,85.3,67.9,54.2,55.3,47.1,29.9,71,49,27,29.99,29.49,30,6,30,0.00
2013-3-22,72.7,61.7,49.9,57.1,47.5,40.7,87,61,34,29.79,29.58,21,3,21,0.00
2013-3-23,83.7,62.8,47.3,49.3,32.6,5.9,79,46,7,29.88,29.60,34,5,34,0.00
2013-3-24,59.4,45.3,32.1,41.3,19.1,10.4,70,38,15,30.27,29.88,26,5,26,0.00
2013-3-25,56.1,43.8,30.8,17.8,12.2,6.0,51,30,14,30.46,30.22,13,3,13,0.00
2013-3-26,67.4,49.5,28.0,18.7,15.0,10.7,53,28,11,30.52,30.24,23,4,23,0.00
2013-3-27,76.0,59.1,44.6,46.0,34.6,17.2,62,41,25,30.26,30.04,26,5,26,0.00
2013-3-28,81.5,65.4,48.8,53.8,49.8,43.6,85,59,37,30.12,29.99,18,3,18,0.00
2013-3-29,79.3,64.6,60.2,57.5,55.9,54.0,84,74,46,30.11,29.98,20,3,20,0.00
2013-3-30,88.0,73.0,60.2,60.4,55.3,45.9,86,58,25,30.08,29.81,26,4,26,0.00
2013-3-31,82.5,72.3,65.0,59.4,53.2,46.2,73,53,32,29.98,29.84,19,3,19,0.00